Portada
METAR-TAF:

METAR-TAF

Aeropuertos :

Nueva Iberia, Luisiana, Estados Unidos

latitud: 30-01-44N, longitud: 091-53-04W, altitud: 7 m

Observación

El informe se hizo hace 30 minutos, a las 21:53 UTC
Viento 8 kt del sur-suroeste
Temperatura 22°C
Humedad 57%
Presión 1016 hPa
Visibilidad: 16.1 km
Cielo despejado

METAR: KARA 022153Z 20008KT 10SM CLR 22/13 A2999 RMK AO2 SLP155 T02220133

Hora: 17:23 (22:23 UTC)

Pronóstico

El informe se hizo hace 4 horas y 57 minutos, a las 17:26 UTC
Pronóstico válido del 02 a las 18 UTC al 03 a las 18 UTC
Viento 10 kt del sureste
Visibilidad: 10 km
Cielo nuboso a una altura de 25000 ft
A partir de las 03 a las 0100 UTC
Viento 5 kt con dirección variable
Visibilidad: 10 km
Cielo nuboso a una altura de 25000 ft
A partir de las 03 a las 1500 UTC
Viento 10 kt del sureste
Visibilidad: 10 km
Nubes dispersas a una altura de 9000 ft

TAF: KARA 021726Z 0218/0318 13010KT P6SM BKN250 FM030100 VRB05KT P6SM BKN250 FM031500 14010KT P6SM SCT090

Observaciones y pronósticos meteorológicos de más de 4000 aeropuertos (mensajes METAR y TAF).

Los puntos amarillos y rojos representan las estaciones disponibles.

Ponga el ratón en el punto deseado para ver el nombre de la estación.

Haga clic para ver las observaciones y los pronósticos meteorológicos.

Para cambiar el mapa : haga clic en los botones verdes con una cruz de color negro para hacer un zoom, en el botón verde con un guión para alejar o en las flechas verdes para mapas adyacentes.


METAR-TAF: